Main page
METAR-TAF:

METAR-TAF

Airports :

Røros Airport

Røros, Norway

latitude: 62-35N, longitude: 011-21E, elevation: 626 m

Current weather observation

The report was made 22 minutes ago, at 09:50 UTC
Wind 15 kt from the Northwest with gusts up to 27 kt, varying between West and North/Northwest
Temperature -1°C
Humidity 74%
Pressure 1021 hPa
Visibility 10 km or more

METAR: ENRO 190950Z AUTO 31015G27KT 270V340 9999NDV SCT027/// M01/M05 Q1021

Time: 11:12 (10:12 UTC)


TAF: missing

Weather observations and forecasts of more than 4000 airports (METAR and TAF reports).

The available stations are represented by yellow and red dots on the map.

Hover mouse over dot to see the name of the station.

Then click to see weather observations and forecasts.

To change the map : click on the green buttons with a black cross to zoom in, on the green button with a dash to zoom out, or on the green arrows for adjacent maps.


METAR-TAF: